Главная страница
METAR-TAF:

METAR-TAF

Аэропорты :

Сундсвалль-Härnösand, Швеция

широта: 62-32N, долгота: 017-27E, высота над уровнем моря: 4 м

Текущие метеонаблюдения

Эта сводка был подготовлена 32 минут назад, в 11:50 UTC
Ветер 9 Узел от восточный, изменяющийся между северо-восточный и восточно-юго-восточный
Температура 12°C
Влажность 94%
Давление 999 hPa
Видимость: 7000 м

METAR: ESNN 241150Z AUTO 09009KT 050V110 7000 OVC003/// 12/11 Q0999

Время: 14:22 (12:22 UTC)

Прогноз

Эта сводка был подготовлена 26 минут назад, в 11:56 UTC
Прогноз действительный с 24-го 12 UTC до 24-го 18 UTC
Ветер 6 Узел от восточно-юго-восточный
Видимость 10 км и более
Рассеянная облачность на высоте 2000 фута
временами
С 24-го 12 UTC до 24-го 15 UTC
Видимость: 1400 м
Рассеянная облачность на высоте 300 фута
дымка

TAF: ESNN 241156Z 2412/2418 11006KT 9999 BKN020 TEMPO 2412/2415 1400 BR BKN003

Метеонаблюдения и прогнозы для более 4000 аэропортов (сводки METAR и TAF).

Имеющиеся станции представлены на карте желтыми и красными точками.

Чтобы увидеть название станции, наведите на нее мышь.

Затем щелкните, чтобы увидеть метеонаблюдения и метеопрогнозы.

Управление картой: чтобы увеличить масштаб, щелкните зеленые кнопки с черным крестиком; чтобы уменьшить масштаб, щелкните зеленую кнопку с тире; для просмотра соседних карт щелкайте зеленые стрелки.


METAR-TAF: